Terminal Aerodrome Forecast
Issued by NWS Cleveland, OH

Home | Current Version | Previous Version | Text Only | Print | Product List | Glossary Off
Versions: 1 2 3 4 5 6 7 8 9 10 11 12 13 14 15 16 17 18 19 20 21 22 23 24 25

000
FTUS41 KCLE 151452 AAB
TAFCLE
TAF AMD
KCLE 151452Z 1515/1618 28007KT P6SM SCT050 BKN100
     FM151900 33007KT P6SM FEW050 SCT100
     FM152300 36004KT P6SM SCT250
     FM160600 06004KT P6SM FEW040 SCT250=

USA.gov is the U.S. government's official web portal to all federal, state and local government web resources and services.